Time;durP1;ratioP1;P1;durP2;ratioP2;P2;SDS_P1;SDS_P2;PMS_P1;PMS_P2;Temp;Humidity;BMP_temperature;BMP_pressure;BME280_temperature;BME280_humidity;BME280_pressure;Samples;Min_cycle;Max_cycle;Signal;HPM_P1;HPM_P2
2022/05/16 00:00:15;;;;;;;;;;;;;;;16.94;67.74;98604.59;5000373;28;102986;-60
2022/05/16 00:02:45;;;;;;;;;;;;;;;16.54;69.10;98602.38;4997328;28;102641;-61
2022/05/16 00:05:16;;;;;;;;;;;;;;;16.52;69.35;98593.66;4999762;28;103617;-60
2022/05/16 00:07:44;;;;;;;;;;;;;;;16.70;69.27;98586.53;5000154;28;103175;-60
2022/05/16 00:10:14;;;;;;;;;;;;;;;16.85;68.38;98588.66;4999959;28;102759;-60
2022/05/16 00:12:43;;;;;;;;;;;;;;;17.01;68.63;98586.16;4998134;28;104259;-60
2022/05/16 00:15:12;;;;;;;;;;;;;;;17.02;69.50;98585.16;4993485;28;103266;-60
2022/05/16 00:17:41;;;;;;;;;;;;;;;17.00;69.30;98589.81;4996322;28;103151;-60
2022/05/16 00:20:09;;;;;;;;;;;;;;;16.50;71.88;98589.47;4999964;28;102696;-60
2022/05/16 00:22:37;;;;;;;;;;;;;;;16.59;72.22;98585.94;4993752;28;104038;-61
2022/05/16 00:25:06;;;;;;;;;;;;;;;16.75;69.33;98586.94;4997050;28;103242;-60
2022/05/16 00:27:36;;;;;;;;;;;;;;;16.39;71.13;98581.69;4998188;28;103185;-60
2022/05/16 00:30:06;;;;;;;;;;;;;;;16.38;71.62;98585.31;4994159;28;102866;-60
2022/05/16 00:32:34;;;;;;;;;;;;;;;16.60;70.15;98572.44;4997874;28;102672;-61
2022/05/16 00:35:01;;;;;;;;;;;;;;;16.69;69.88;98573.34;4995917;28;103847;-60
2022/05/16 00:37:29;;;;;;;;;;;;;;;16.56;70.82;98571.03;4997887;28;103190;-60
2022/05/16 00:39:57;;;;;;;;;;;;;;;16.69;70.12;98584.03;5003519;28;103174;-60
2022/05/16 00:42:25;;;;;;;;;;;;;;;16.64;69.70;98575.66;4997189;28;103834;-60
2022/05/16 00:44:54;;;;;;;;;;;;;;;16.70;69.70;98567.84;4993945;28;103330;-61
2022/05/16 00:47:22;;;;;;;;;;;;;;;16.84;69.74;98565.66;5003260;28;103274;-60
2022/05/16 00:49:51;;;;;;;;;;;;;;;16.95;68.14;98557.41;5001039;28;102616;-60
2022/05/16 00:52:20;;;;;;;;;;;;;;;16.99;68.60;98553.44;4994780;28;102777;-61
2022/05/16 00:54:50;;;;;;;;;;;;;;;16.89;68.74;98548.19;4995946;28;104292;-61
2022/05/16 00:57:20;;;;;;;;;;;;;;;16.86;68.27;98547.66;4996383;28;103115;-60
2022/05/16 00:59:51;;;;;;;;;;;;;;;16.76;68.33;98547.72;4994206;28;102956;-60
2022/05/16 01:05:08;;;;;;;;;;;;;;;16.84;67.30;98546.97;4998750;28;103245;-60
2022/05/16 01:07:37;;;;;;;;;;;;;;;16.92;67.65;98547.91;4998392;28;103344;-60
2022/05/16 01:10:05;;;;;;;;;;;;;;;17.00;67.10;98544.44;4998202;28;102697;-60
2022/05/16 01:12:35;;;;;;;;;;;;;;;17.08;66.35;98539.16;4995458;28;102585;-60
2022/05/16 01:15:04;;;;;;;;;;;;;;;17.07;66.39;98545.47;4994500;28;103991;-61
2022/05/16 01:17:33;;;;;;;;;;;;;;;16.39;68.47;98539.88;4996322;28;103134;-61
2022/05/16 01:20:01;;;;;;;;;;;;;;;16.63;67.68;98537.47;4993114;28;103074;-61
2022/05/16 01:22:32;;;;;;;;;;;;;;;16.50;69.62;98544.97;4996782;28;102654;-60
2022/05/16 01:25:04;;;;;;;;;;;;;;;16.54;69.16;98541.03;4995671;28;104507;-61
2022/05/16 01:27:42;;;;;;;;;;;;;;;16.66;68.78;98537.16;4995596;28;103119;-61
2022/05/16 01:30:11;;;;;;;;;;;;;;;16.58;69.30;98523.75;4997631;28;102636;-61
2022/05/16 01:32:39;;;;;;;;;;;;;;;16.64;68.85;98538.31;5000272;28;103710;-61
2022/05/16 01:35:08;;;;;;;;;;;;;;;16.72;68.55;98541.88;4995674;28;103236;-61
2022/05/16 01:40:22;;;;;;;;;;;;;;;16.29;69.79;98547.06;4997635;28;102650;-61
2022/05/16 01:42:50;;;;;;;;;;;;;;;16.38;68.80;98538.19;4998805;28;104065;-60
2022/05/16 01:45:17;;;;;;;;;;;;;;;16.49;68.33;98537.97;4998389;28;103208;-61
2022/05/16 01:47:46;;;;;;;;;;;;;;;16.56;68.71;98540.91;4993118;28;103201;-60
2022/05/16 01:50:13;;;;;;;;;;;;;;;16.64;68.11;98549.81;4999176;28;102573;-61
2022/05/16 01:52:42;;;;;;;;;;;;;;;16.30;69.21;98558.56;4998587;28;103016;-60
2022/05/16 01:55:11;;;;;;;;;;;;;;;16.50;67.63;98552.97;4992036;28;103841;-61
2022/05/16 01:57:39;;;;;;;;;;;;;;;16.04;69.76;98561.94;4998626;28;103127;-60
2022/05/16 02:00:10;;;;;;;;;;;;;;;15.75;71.89;98550.59;5001524;28;102519;-60
2022/05/16 02:02:39;;;;;;;;;;;;;;;15.68;72.22;98548.66;4992865;28;102936;-60
2022/05/16 02:05:08;;;;;;;;;;;;;;;15.82;71.37;98562.34;4994614;28;103392;-60
2022/05/16 02:07:35;;;;;;;;;;;;;;;15.82;71.04;98548.19;4994364;28;103123;-59
2022/05/16 02:10:05;;;;;;;;;;;;;;;16.01;70.33;98553.41;4996805;28;102716;-60
2022/05/16 02:12:33;;;;;;;;;;;;;;;16.14;70.20;98559.25;4994119;28;103820;-60
2022/05/16 02:15:01;;;;;;;;;;;;;;;16.27;70.44;98561.53;4996203;28;103243;-60
2022/05/16 02:17:31;;;;;;;;;;;;;;;16.24;70.64;98552.03;4999574;28;103260;-60
2022/05/16 02:19:59;;;;;;;;;;;;;;;15.94;71.36;98549.66;4998007;28;103691;-59
2022/05/16 02:25:15;;;;;;;;;;;;;;;16.19;69.95;98535.66;4997811;28;103221;-60
2022/05/16 02:27:45;;;;;;;;;;;;;;;16.37;68.97;98536.50;4998693;28;103365;-60
2022/05/16 02:30:13;;;;;;;;;;;;;;;16.44;67.93;98537.56;4996118;28;102587;-60
2022/05/16 02:32:41;;;;;;;;;;;;;;;16.49;67.41;98539.78;4995172;28;102687;-60
2022/05/16 02:35:09;;;;;;;;;;;;;;;16.39;67.31;98539.88;4995865;28;103267;-61
2022/05/16 02:37:37;;;;;;;;;;;;;;;16.35;67.48;98541.13;4993817;28;102991;-60
2022/05/16 02:40:05;;;;;;;;;;;;;;;16.34;66.95;98539.47;5001651;28;102924;-60
2022/05/16 02:42:35;;;;;;;;;;;;;;;16.41;67.57;98542.38;4998472;28;103861;-60
2022/05/16 02:45:06;;;;;;;;;;;;;;;16.45;67.18;98543.75;4996130;28;102981;-60
2022/05/16 02:47:33;;;;;;;;;;;;;;;16.54;66.32;98537.53;4992968;28;102912;-60
2022/05/16 02:50:02;;;;;;;;;;;;;;;16.53;66.56;98542.00;4998366;28;102660;-60
2022/05/16 02:52:30;;;;;;;;;;;;;;;16.47;67.09;98545.28;4996643;28;103134;-60
2022/05/16 02:55:00;;;;;;;;;;;;;;;16.35;67.09;98538.47;4997775;28;103308;-60
2022/05/16 02:57:28;;;;;;;;;;;;;;;16.27;67.87;98545.53;4995614;28;104128;-60
2022/05/16 03:00:00;;;;;;;;;;;;;;;16.37;67.18;98552.50;4998757;28;103010;-60
2022/05/16 03:02:28;;;;;;;;;;;;;;;16.42;67.20;98558.19;4999386;28;104231;-60
2022/05/16 03:04:56;;;;;;;;;;;;;;;16.43;67.37;98554.56;4992114;28;103280;-59
2022/05/16 03:07:24;;;;;;;;;;;;;;;16.29;67.05;98559.56;4998027;28;103287;-59
2022/05/16 03:09:51;;;;;;;;;;;;;;;16.40;67.17;98562.84;4995104;28;103049;-59
2022/05/16 03:12:19;;;;;;;;;;;;;;;16.44;67.25;98574.91;4992487;28;102738;-59
2022/05/16 03:14:47;;;;;;;;;;;;;;;16.47;66.91;98579.09;4994441;28;103210;-59
2022/05/16 03:17:18;;;;;;;;;;;;;;;16.45;67.39;98584.56;4995923;28;103229;-60
2022/05/16 03:19:46;;;;;;;;;;;;;;;16.10;70.04;98584.50;5000518;28;102762;-60
2022/05/16 03:22:14;;;;;;;;;;;;;;;16.08;70.77;98575.81;4994856;28;104260;-60
2022/05/16 03:24:42;;;;;;;;;;;;;;;15.83;70.67;98579.16;4996005;28;103932;-66
2022/05/16 03:27:10;;;;;;;;;;;;;;;15.70;71.65;98578.63;5000625;28;103150;-71
2022/05/16 03:29:38;;;;;;;;;;;;;;;15.74;71.04;98574.72;4990597;28;103016;-67
2022/05/16 03:32:07;;;;;;;;;;;;;;;15.66;72.24;98578.94;4997996;28;102569;-68
2022/05/16 03:34:36;;;;;;;;;;;;;;;15.79;71.86;98575.09;4992839;28;103214;-68
2022/05/16 03:37:04;;;;;;;;;;;;;;;15.91;71.69;98576.59;5009781;28;103226;-68
2022/05/16 03:42:16;;;;;;;;;;;;;;;15.82;72.73;98561.50;4998334;28;103954;-68
2022/05/16 03:44:45;;;;;;;;;;;;;;;15.92;71.31;98570.28;4998803;28;103156;-68
2022/05/16 03:47:12;;;;;;;;;;;;;;;15.76;73.21;98562.94;4997410;28;103161;-68
2022/05/16 03:49:41;;;;;;;;;;;;;;;15.78;73.23;98571.59;4995859;28;102670;-69
2022/05/16 03:52:09;;;;;;;;;;;;;;;15.90;72.86;98577.56;4999564;28;103933;-67
2022/05/16 03:54:42;;;;;;;;;;;;;;;16.10;71.56;98582.69;4997213;28;103245;-68
2022/05/16 03:57:10;;;;;;;;;;;;;;;16.04;71.63;98590.41;4996547;28;103140;-68
2022/05/16 03:59:38;;;;;;;;;;;;;;;15.89;71.39;98590.06;4998879;28;102596;-68
2022/05/16 04:02:08;;;;;;;;;;;;;;;15.95;72.66;98593.97;5000030;28;102627;-68
2022/05/16 04:04:36;;;;;;;;;;;;;;;15.85;72.04;98599.34;4997456;28;103938;-68
2022/05/16 04:07:05;;;;;;;;;;;;;;;15.91;72.00;98597.91;4999752;28;103165;-68
2022/05/16 04:09:33;;;;;;;;;;;;;;;15.99;71.42;98596.19;4999385;28;102751;-68
2022/05/16 04:12:01;;;;;;;;;;;;;;;16.19;71.50;98602.28;4993858;28;102729;-68
2022/05/16 04:14:28;;;;;;;;;;;;;;;16.29;70.73;98592.38;5001077;28;103291;-68
2022/05/16 04:16:58;;;;;;;;;;;;;;;16.39;70.33;98598.53;5012587;28;103138;-68
2022/05/16 04:19:26;;;;;;;;;;;;;;;16.57;69.49;98596.72;4994606;28;103053;-66
2022/05/16 04:21:54;;;;;;;;;;;;;;;16.77;69.24;98603.63;5002966;28;102632;-66
2022/05/16 04:24:25;;;;;;;;;;;;;;;16.88;68.78;98615.03;5002241;28;103244;-66
2022/05/16 04:26:53;;;;;;;;;;;;;;;16.87;69.44;98606.19;4998529;28;103213;-66
2022/05/16 04:29:21;;;;;;;;;;;;;;;16.89;68.27;98604.22;4997079;28;102574;-67
2022/05/16 04:31:50;;;;;;;;;;;;;;;16.99;68.12;98601.47;5002244;28;102814;-67
2022/05/16 04:34:18;;;;;;;;;;;;;;;16.87;68.55;98608.03;4998979;28;103178;-65
2022/05/16 04:36:48;;;;;;;;;;;;;;;17.01;70.68;98613.66;4999877;28;103255;-67
2022/05/16 04:39:16;;;;;;;;;;;;;;;17.09;71.66;98612.91;4999284;28;102762;-65
2022/05/16 04:44:36;;;;;;;;;;;;;;;16.97;72.01;98616.78;4998557;28;103188;-65
2022/05/16 04:47:04;;;;;;;;;;;;;;;17.03;73.75;98618.88;4997177;28;103184;-65
2022/05/16 04:49:32;;;;;;;;;;;;;;;17.08;72.65;98609.41;4998233;28;102699;-65
2022/05/16 04:52:00;;;;;;;;;;;;;;;17.13;72.22;98614.25;5000352;28;102694;-66
2022/05/16 04:54:28;;;;;;;;;;;;;;;17.09;73.71;98612.91;4995501;28;104211;-65
2022/05/16 04:56:58;;;;;;;;;;;;;;;17.10;72.75;98614.56;4999024;28;103244;-66
2022/05/16 04:59:25;;;;;;;;;;;;;;;17.14;71.90;98618.63;4997090;28;102628;-65
2022/05/16 05:01:53;;;;;;;;;;;;;;;17.18;72.77;98617.31;4996294;28;102655;-64
2022/05/16 05:04:21;;;;;;;;;;;;;;;17.25;72.03;98623.72;4994585;28;103246;-65
2022/05/16 05:06:49;;;;;;;;;;;;;;;17.29;71.29;98625.09;5011642;28;104680;-65
2022/05/16 05:09:17;;;;;;;;;;;;;;;17.35;72.18;98619.13;4996642;28;102736;-65
2022/05/16 05:14:34;;;;;;;;;;;;;;;17.44;71.93;98626.19;4993441;28;103226;-65
2022/05/16 05:17:04;;;;;;;;;;;;;;;17.57;71.02;98617.81;4992622;28;103201;-65
2022/05/16 05:19:32;;;;;;;;;;;;;;;17.66;71.06;98617.72;4993501;27;102757;-65
2022/05/16 05:22:00;;;;;;;;;;;;;;;17.74;70.02;98624.97;5004037;28;103863;-66
2022/05/16 05:24:27;;;;;;;;;;;;;;;17.81;70.12;98621.47;5003226;28;103311;-65
2022/05/16 05:26:55;;;;;;;;;;;;;;;17.85;70.08;98624.69;5002926;28;103134;-65
2022/05/16 05:29:25;;;;;;;;;;;;;;;17.92;69.72;98623.88;5002247;28;102649;-65
2022/05/16 05:31:55;;;;;;;;;;;;;;;17.96;70.12;98627.09;5003746;28;102699;-66
2022/05/16 05:34:22;;;;;;;;;;;;;;;17.95;69.74;98628.91;5002830;28;103302;-65
2022/05/16 05:36:50;;;;;;;;;;;;;;;17.94;70.10;98624.56;4998598;28;103049;-64
2022/05/16 05:39:20;;;;;;;;;;;;;;;18.01;69.83;98630.13;5001514;28;103890;-65
2022/05/16 05:41:47;;;;;;;;;;;;;;;18.00;70.20;98627.59;5004575;28;104076;-65
2022/05/16 05:44:15;;;;;;;;;;;;;;;17.93;72.02;98630.91;5004366;28;104325;-65
2022/05/16 05:46:43;;;;;;;;;;;;;;;17.91;73.40;98621.34;5003299;28;103157;-65
2022/05/16 05:49:13;;;;;;;;;;;;;;;17.89;74.23;98624.19;5007289;28;102593;-65
2022/05/16 05:51:41;;;;;;;;;;;;;;;18.01;72.96;98632.78;5007366;28;102799;-65
2022/05/16 05:54:11;;;;;;;;;;;;;;;18.09;72.88;98634.66;5005366;28;103201;-65
2022/05/16 05:56:41;;;;;;;;;;;;;;;18.17;73.48;98629.34;5004391;28;103272;-65
2022/05/16 05:59:09;;;;;;;;;;;;;;;18.07;73.19;98642.00;4997865;28;102692;-65
2022/05/16 06:01:37;;;;;;;;;;;;;;;18.10;72.62;98649.72;4985323;28;103015;-65
2022/05/16 06:04:05;;;;;;;;;;;;;;;18.13;73.25;98654.75;4985859;28;104201;-65
2022/05/16 06:06:34;;;;;;;;;;;;;;;18.33;73.90;98664.19;4986164;28;103425;-66
2022/05/16 06:09:02;;;;;;;;;;;;;;;18.20;73.84;98653.09;5003960;28;102693;-65
2022/05/16 06:11:30;;;;;;;;;;;;;;;18.30;73.36;98659.16;5003843;28;102893;-65
2022/05/16 06:13:58;;;;;;;;;;;;;;;18.53;72.72;98655.78;5004102;28;103040;-65
2022/05/16 06:16:26;;;;;;;;;;;;;;;18.68;72.57;98664.03;5004500;28;103248;-65
2022/05/16 06:18:54;;;;;;;;;;;;;;;18.69;73.08;98671.06;5004831;28;103564;-65
2022/05/16 06:21:21;;;;;;;;;;;;;;;18.89;71.14;98668.94;5002238;28;103863;-66
2022/05/16 06:23:51;;;;;;;;;;;;;;;18.98;71.75;98660.75;5003368;28;102991;-65
2022/05/16 06:26:18;;;;;;;;;;;;;;;19.03;71.56;98671.78;5001116;28;103167;-59
2022/05/16 06:28:46;;;;;;;;;;;;;;;18.99;69.04;98670.47;5003599;28;102587;-65
2022/05/16 06:31:14;;;;;;;;;;;;;;;18.98;68.58;98667.94;5003834;28;102943;-65
2022/05/16 06:33:46;;;;;;;;;;;;;;;18.96;68.21;98672.63;5000064;28;103258;-60
2022/05/16 06:36:15;;;;;;;;;;;;;;;19.13;66.75;98673.50;4980875;28;103234;-59
2022/05/16 06:38:43;;;;;;;;;;;;;;;19.24;66.00;98675.84;5001463;28;102563;-65
2022/05/16 06:41:12;;;;;;;;;;;;;;;19.38;66.69;98683.22;4985669;28;104035;-65
2022/05/16 06:43:40;;;;;;;;;;;;;;;19.36;65.42;98685.25;4985020;28;103427;-65
2022/05/16 06:46:08;;;;;;;;;;;;;;;19.66;66.42;98684.59;5003004;28;103180;-65
2022/05/16 06:48:35;;;;;;;;;;;;;;;20.07;64.68;98686.22;4985360;28;102650;-65
2022/05/16 06:51:03;;;;;;;;;;;;;;;20.35;64.63;98681.31;5002470;28;102651;-65
2022/05/16 06:53:31;;;;;;;;;;;;;;;20.63;65.55;98687.91;5001026;28;103975;-65
2022/05/16 06:56:00;;;;;;;;;;;;;;;20.50;63.30;98684.09;5000484;28;102913;-65
2022/05/16 06:58:29;;;;;;;;;;;;;;;20.66;63.46;98694.78;5003574;28;102705;-65
2022/05/16 07:00:57;;;;;;;;;;;;;;;20.88;63.45;98694.00;5003483;28;102622;-65
2022/05/16 07:03:25;;;;;;;;;;;;;;;21.12;62.36;98701.09;5002964;28;103233;-65
2022/05/16 07:05:55;;;;;;;;;;;;;;;21.24;61.45;98697.00;5000767;28;103253;-65
2022/05/16 07:08:23;;;;;;;;;;;;;;;21.63;61.18;98691.50;5003902;28;102870;-66
2022/05/16 07:10:51;;;;;;;;;;;;;;;21.85;60.33;98687.94;5002893;28;102830;-65
2022/05/16 07:13:25;;;;;;;;;;;;;;;22.22;59.38;98692.50;4987904;28;103716;-65
2022/05/16 07:15:54;;;;;;;;;;;;;;;22.72;58.82;98691.75;5006706;28;103038;-65
2022/05/16 07:18:23;;;;;;;;;;;;;;;22.95;57.52;98693.31;5006065;28;102558;-65
2022/05/16 07:20:51;;;;;;;;;;;;;;;22.93;57.21;98702.59;5005066;28;102750;-65
2022/05/16 07:23:19;;;;;;;;;;;;;;;22.78;58.44;98693.69;5005764;28;103322;-65
2022/05/16 07:28:32;;;;;;;;;;;;;;;22.79;58.25;98698.06;5007460;28;102676;-66
2022/05/16 07:31:02;;;;;;;;;;;;;;;22.53;57.58;98704.75;5019602;28;102775;-66
2022/05/16 07:33:30;;;;;;;;;;;;;;;22.50;57.82;98702.44;5007492;28;103813;-65
2022/05/16 07:35:58;;;;;;;;;;;;;;;22.59;58.48;98703.16;5003588;28;102637;-64
2022/05/16 07:38:26;;;;;;;;;;;;;;;22.97;58.84;98703.88;4995467;28;102708;-64
2022/05/16 07:40:54;;;;;;;;;;;;;;;23.11;57.14;98705.69;4969974;28;102747;-64
2022/05/16 07:43:23;;;;;;;;;;;;;;;23.25;58.72;98707.53;4998901;28;103190;-64
2022/05/16 07:45:51;;;;;;;;;;;;;;;23.16;57.65;98718.63;5002775;28;103151;-64
2022/05/16 07:48:21;;;;;;;;;;;;;;;23.31;57.15;98709.44;5012403;28;103228;-62
2022/05/16 07:50:49;;;;;;;;;;;;;;;23.32;57.90;98711.13;4981003;28;102754;-64
2022/05/16 07:53:17;;;;;;;;;;;;;;;23.50;58.29;98722.34;5004005;28;103315;-59
2022/05/16 07:55:46;;;;;;;;;;;;;;;23.44;57.89;98717.69;4999390;28;103181;-60
2022/05/16 07:58:14;;;;;;;;;;;;;;;23.36;59.07;98722.34;4998670;28;102607;-59
2022/05/16 08:00:42;;;;;;;;;;;;;;;23.41;57.53;98718.09;5003335;28;102752;-59
2022/05/16 08:03:11;;;;;;;;;;;;;;;23.26;58.41;98724.53;4997640;28;103940;-59
2022/05/16 08:05:40;;;;;;;;;;;;;;;23.18;58.60;98724.66;4996336;28;103140;-59
2022/05/16 08:10:54;;;;;;;;;;;;;;;23.07;62.95;98723.28;5005323;28;104074;-64
2022/05/16 08:13:21;;;;;;;;;;;;;;;22.76;64.37;98726.22;5006659;28;103905;-64
2022/05/16 08:15:49;;;;;;;;;;;;;;;22.79;64.18;98727.69;5004535;28;102976;-64
2022/05/16 08:18:17;;;;;;;;;;;;;;;22.90;64.27;98732.59;4984287;28;102923;-60
2022/05/16 08:20:47;;;;;;;;;;;;;;;23.08;63.10;98741.09;5004855;28;104004;-60
2022/05/16 08:23:16;;;;;;;;;;;;;;;23.16;63.10;98735.59;4985856;28;102538;-60
2022/05/16 08:25:45;;;;;;;;;;;;;;;23.33;63.91;98741.59;5003164;28;104188;-60
2022/05/16 08:28:13;;;;;;;;;;;;;;;23.34;64.35;98744.13;5005412;28;102765;-60
2022/05/16 08:30:41;;;;;;;;;;;;;;;23.38;64.79;98742.72;5004940;28;102919;-60
2022/05/16 08:33:09;;;;;;;;;;;;;;;23.10;64.06;98747.16;5003865;28;103253;-60
2022/05/16 08:35:40;;;;;;;;;;;;;;;22.88;64.99;98746.25;4986340;28;103152;-60
2022/05/16 08:40:58;;;;;;;;;;;;;;;22.90;65.13;98755.00;5003723;28;104057;-59
2022/05/16 08:43:33;;;;;;;;;;;;;;;23.13;65.56;98754.84;5002723;28;103276;-59
2022/05/16 08:46:03;;;;;;;;;;;;;;;24.27;62.39;98756.66;5020063;28;103811;-60
2022/05/16 08:48:33;;;;;;;;;;;;;;;25.65;59.73;98759.06;5001886;28;102724;-59
2022/05/16 08:51:04;;;;;;;;;;;;;;;26.11;57.56;98753.66;4984655;28;102678;-60
2022/05/16 08:53:38;;;;;;;;;;;;;;;26.12;58.37;98762.63;5002326;28;103226;-60
2022/05/16 08:56:08;;;;;;;;;;;;;;;26.25;54.75;98754.53;4985435;28;103205;-60
2022/05/16 08:58:40;;;;;;;;;;;;;;;27.22;55.39;98757.25;5002882;28;102897;-59
2022/05/16 09:01:13;;;;;;;;;;;;;;;27.92;52.86;98757.06;4986217;28;102801;-60
2022/05/16 09:03:44;;;;;;;;;;;;;;;28.32;52.55;98754.06;5001618;28;103310;-60
2022/05/16 09:06:15;;;;;;;;;;;;;;;28.05;51.14;98748.00;5004185;28;103192;-60
2022/05/16 09:08:49;;;;;;;;;;;;;;;27.50;52.55;98749.63;5000716;28;102771;-60
2022/05/16 09:11:20;;;;;;;;;;;;;;;27.03;51.52;98750.88;5018796;27;102758;-60
2022/05/16 09:13:51;;;;;;;;;;;;;;;26.61;50.82;98757.59;5004062;28;103163;-61
2022/05/16 09:16:28;;;;;;;;;;;;;;;27.17;49.75;98743.50;5003681;28;103266;-60
2022/05/16 09:19:00;;;;;;;;;;;;;;;27.13;50.48;98753.09;5016979;28;102657;-60
2022/05/16 09:21:32;;;;;;;;;;;;;;;27.35;49.62;98757.19;4984168;28;102681;-61
2022/05/16 09:24:06;;;;;;;;;;;;;;;27.20;48.73;98756.63;5003021;28;103439;-65
2022/05/16 09:26:39;;;;;;;;;;;;;;;27.51;48.58;98764.84;5005029;28;103113;-65
2022/05/16 09:29:23;;;;;;;;;;;;;;;27.81;48.65;98760.50;4985337;28;102622;-65
2022/05/16 09:31:52;;;;;;;;;;;;;;;28.79;47.20;98755.28;5003901;28;102831;-65
2022/05/16 09:34:27;;;;;;;;;;;;;;;28.84;46.32;98756.28;5000531;28;103176;-66
2022/05/16 09:36:55;;;;;;;;;;;;;;;28.51;45.93;98772.06;5002849;28;103166;-65
2022/05/16 09:39:26;;;;;;;;;;;;;;;28.19;46.44;98765.84;5004560;28;102955;-66
2022/05/16 09:42:02;;;;;;;;;;;;;;;27.63;46.63;98763.94;5004509;28;103019;-65
2022/05/16 09:44:31;;;;;;;;;;;;;;;27.65;46.77;98769.13;4998948;28;103205;-65
2022/05/16 09:47:16;;;;;;;;;;;;;;;26.86;47.61;98779.50;5002388;28;103168;-65
2022/05/16 09:50:04;;;;;;;;;;;;;;;26.34;48.36;98774.94;5003791;28;102916;-65
2022/05/16 09:52:33;;;;;;;;;;;;;;;26.25;48.77;98782.44;5003722;28;102624;-61
2022/05/16 09:55:04;;;;;;;;;;;;;;;26.63;49.54;98785.34;5003515;28;103255;-60
2022/05/16 09:57:38;;;;;;;;;;;;;;;26.66;50.60;98793.03;4996696;28;103975;-60
2022/05/16 10:00:16;;;;;;;;;;;;;;;26.40;51.88;98791.19;5017390;28;102631;-61
2022/05/16 10:02:54;;;;;;;;;;;;;;;26.25;52.90;98797.84;5002795;28;104225;-61
2022/05/16 10:05:24;;;;;;;;;;;;;;;26.39;52.59;98799.50;4985460;28;103327;-61
2022/05/16 10:07:58;;;;;;;;;;;;;;;26.47;52.04;98791.19;4997920;28;103206;-60
2022/05/16 10:10:32;;;;;;;;;;;;;;;26.35;52.54;98798.28;4991848;28;102729;-61
2022/05/16 10:13:00;;;;;;;;;;;;;;;26.21;53.48;98796.63;4977739;28;104042;-61
2022/05/16 10:15:28;;;;;;;;;;;;;;;27.21;51.71;98798.97;4995601;28;104874;-61
2022/05/16 10:17:57;;;;;;;;;;;;;;;27.39;50.06;98796.41;4979573;28;103125;-61
2022/05/16 10:20:27;;;;;;;;;;;;;;;27.20;50.91;98795.41;4996985;28;102707;-66
2022/05/16 10:22:57;;;;;;;;;;;;;;;27.31;49.71;98796.66;4994390;28;102784;-65
2022/05/16 10:25:34;;;;;;;;;;;;;;;26.65;51.18;98794.06;4996608;28;104090;-65
2022/05/16 10:28:04;;;;;;;;;;;;;;;25.57;52.04;98804.41;4983108;28;103140;-66
2022/05/16 10:33:24;;;;;;;;;;;;;;;25.51;50.78;98794.38;4987065;28;102969;-66
2022/05/16 10:33:27;;;;;;;;;;;;;;;26.14;50.85;98801.19;4990251;28;102999;-66
2022/05/16 10:35:57;;;;;;;;;;;;;;;26.11;50.20;98801.56;4975865;28;104208;-66
2022/05/16 10:38:39;;;;;;;;;;;;;;;26.30;49.97;98800.78;4990746;28;103006;-66
2022/05/16 10:41:13;;;;;;;;;;;;;;;25.85;49.58;98803.19;4998299;28;102687;-66
2022/05/16 10:43:54;;;;;;;;;;;;;;;25.15;51.12;98805.44;4992792;28;104155;-66
2022/05/16 10:46:26;;;;;;;;;;;;;;;25.21;50.41;98810.03;4977061;28;103168;-66
2022/05/16 10:49:00;;;;;;;;;;;;;;;25.39;50.35;98813.03;4982203;28;102961;-61
2022/05/16 10:51:32;;;;;;;;;;;;;;;25.53;50.33;98806.66;5001830;28;103474;-61
2022/05/16 10:54:05;;;;;;;;;;;;;;;25.64;51.13;98813.34;4985511;28;103625;-61
2022/05/16 10:56:47;;;;;;;;;;;;;;;26.08;49.37;98819.06;4996870;28;104181;-61
2022/05/16 10:59:22;;;;;;;;;;;;;;;26.08;48.92;98818.25;4996483;28;103188;-61
2022/05/16 11:01:54;;;;;;;;;;;;;;;25.73;49.59;98810.25;5001272;28;103124;-61
2022/05/16 11:04:38;;;;;;;;;;;;;;;26.01;49.28;98817.38;5004396;28;104006;-58
2022/05/16 11:07:15;;;;;;;;;;;;;;;25.98;49.17;98818.63;4998760;28;103625;-59
2022/05/16 11:09:50;;;;;;;;;;;;;;;25.70;50.35;98813.38;4999976;28;103069;-61
2022/05/16 11:12:22;;;;;;;;;;;;;;;26.05;50.04;98818.66;4998655;28;102681;-58
2022/05/16 11:14:53;;;;;;;;;;;;;;;26.17;50.45;98817.00;5002335;28;104097;-57
2022/05/16 11:17:24;;;;;;;;;;;;;;;25.76;51.10;98817.13;4997993;28;104198;-57
2022/05/16 11:19:57;;;;;;;;;;;;;;;25.26;52.12;98821.09;4995573;28;103213;-61
2022/05/16 11:22:29;;;;;;;;;;;;;;;25.49;52.56;98835.13;4998098;28;102527;-61
2022/05/16 11:25:01;;;;;;;;;;;;;;;25.08;52.72;98847.81;5000862;28;102760;-61
2022/05/16 11:27:34;;;;;;;;;;;;;;;24.77;52.55;98850.91;4999737;28;103283;-61
2022/05/16 11:30:08;;;;;;;;;;;;;;;24.70;53.37;98850.03;4976616;28;103148;-61
2022/05/16 11:32:43;;;;;;;;;;;;;;;24.68;53.94;98854.78;4977218;28;102705;-61
2022/05/16 11:35:14;;;;;;;;;;;;;;;24.67;54.31;98856.66;4997544;28;102907;-61
2022/05/16 11:37:51;;;;;;;;;;;;;;;24.52;53.60;98863.19;4995473;28;104137;-61
2022/05/16 11:40:24;;;;;;;;;;;;;;;24.57;53.29;98858.88;5004252;27;103213;-61
2022/05/16 11:43:00;;;;;;;;;;;;;;;24.04;54.55;98870.19;5013286;28;102718;-61
2022/05/16 11:45:33;;;;;;;;;;;;;;;24.15;54.31;98856.22;5014643;28;102885;-60
2022/05/16 11:48:06;;;;;;;;;;;;;;;24.40;53.48;98865.59;4987388;28;104374;-61
2022/05/16 11:50:59;;;;;;;;;;;;;;;23.91;54.76;98867.38;5015008;28;103158;-61
2022/05/16 11:53:44;;;;;;;;;;;;;;;23.77;54.40;98870.94;4991223;28;102756;-65
2022/05/16 12:02:10;;;;;;;;;;;;;;;23.63;54.51;98878.84;5004014;28;103133;-65
2022/05/16 12:04:41;;;;;;;;;;;;;;;23.59;54.06;98882.97;4998174;28;102818;-65
2022/05/16 12:07:15;;;;;;;;;;;;;;;23.47;53.86;98887.16;5007268;27;102971;-65
2022/05/16 12:09:51;;;;;;;;;;;;;;;23.54;54.03;98880.00;5008602;27;103210;-65
2022/05/16 12:12:40;;;;;;;;;;;;;;;23.28;54.15;98876.94;5013210;28;103805;-64
2022/05/16 12:15:14;;;;;;;;;;;;;;;23.27;54.46;98875.25;4990060;28;103091;-65
2022/05/16 12:17:50;;;;;;;;;;;;;;;22.93;53.75;98873.13;5014452;27;103076;-65
2022/05/16 12:20:33;;;;;;;;;;;;;;;22.88;53.75;98874.69;5014156;27;103295;-65
2022/05/16 12:23:01;;;;;;;;;;;;;;;22.91;56.56;98880.56;5005185;27;103123;-64
2022/05/16 12:25:38;;;;;;;;;;;;;;;22.56;62.49;98877.69;5009403;28;103866;-65
2022/05/16 12:28:21;;;;;;;;;;;;;;;22.22;67.70;98887.06;5012478;28;103999;-66
2022/05/16 12:30:51;;;;;;;;;;;;;;;21.37;70.04;98888.03;5003275;28;103031;-66
2022/05/16 12:33:37;;;;;;;;;;;;;;;21.47;71.11;98901.28;5013998;28;103061;-66
2022/05/16 12:36:12;;;;;;;;;;;;;;;21.43;72.85;98908.84;4997094;28;103068;-66
2022/05/16 12:38:42;;;;;;;;;;;;;;;21.41;75.71;98907.34;5014784;28;103873;-66
2022/05/16 12:41:40;;;;;;;;;;;;;;;21.09;75.71;98902.91;4997100;28;103292;-66
2022/05/16 12:44:16;;;;;;;;;;;;;;;21.36;73.91;98911.38;5005958;28;103213;-65
2022/05/16 12:47:08;;;;;;;;;;;;;;;21.02;78.75;98924.22;5016710;27;102732;-66
2022/05/16 12:49:46;;;;;;;;;;;;;;;20.80;78.83;98928.44;4995474;28;103190;-66
2022/05/16 12:52:26;;;;;;;;;;;;;;;20.63;79.95;98934.84;4989747;28;103250;-66
2022/05/16 12:55:12;;;;;;;;;;;;;;;20.58;80.57;98930.97;5009821;28;103228;-66
2022/05/16 12:57:49;;;;;;;;;;;;;;;20.76;80.32;98929.81;5011519;28;102753;-66
2022/05/16 13:00:19;;;;;;;;;;;;;;;21.03;78.22;98925.88;5013935;28;102770;-66
2022/05/16 13:02:55;;;;;;;;;;;;;;;21.08;79.49;98923.56;5016946;28;103250;-66
2022/05/16 13:05:26;;;;;;;;;;;;;;;21.01;79.98;98916.34;5010458;28;103231;-66
2022/05/16 13:07:58;;;;;;;;;;;;;;;21.23;80.16;98913.78;5021905;28;102681;-65
2022/05/16 13:10:30;;;;;;;;;;;;;;;20.44;82.77;98918.25;5017624;28;103973;-65
2022/05/16 13:13:04;;;;;;;;;;;;;;;20.21;84.08;98918.03;4997525;27;105049;-65
2022/05/16 13:15:35;;;;;;;;;;;;;;;20.15;84.51;98911.47;5017900;28;103165;-65
2022/05/16 13:18:09;;;;;;;;;;;;;;;20.44;83.42;98918.25;5011530;28;102648;-65
2022/05/16 13:20:39;;;;;;;;;;;;;;;19.99;84.95;98914.16;5009142;28;103189;-65
2022/05/16 13:23:08;;;;;;;;;;;;;;;20.55;83.59;98909.84;5011378;28;103217;-65